Time;durP1;ratioP1;P1;durP2;ratioP2;P2;SDS_P1;SDS_P2;PMS_P1;PMS_P2;Temp;Humidity;BMP_temperature;BMP_pressure;BME280_temperature;BME280_humidity;BME280_pressure;Samples;Min_cycle;Max_cycle;Signal;HPM_P1;HPM_P2
2023/05/06 00:01:16;;;;;;;14.00;5.65;;;12.00;99.90;;;;;;4972657;28;20387;-64
2023/05/06 00:03:42;;;;;;;9.88;5.47;;;12.10;99.90;;;;;;4972124;28;20026;-64
2023/05/06 00:06:08;;;;;;;10.52;5.25;;;11.90;99.90;;;;;;4962218;28;20377;-65
2023/05/06 00:08:35;;;;;;;11.80;5.78;;;11.90;99.90;;;;;;4964886;28;20035;-64
2023/05/06 00:11:00;;;;;;;8.63;4.75;;;11.80;99.90;;;;;;4960310;28;20099;-65
2023/05/06 00:13:26;;;;;;;11.18;5.28;;;11.90;99.90;;;;;;4960873;28;20034;-64
2023/05/06 00:15:52;;;;;;;10.93;5.60;;;12.00;99.90;;;;;;4972179;28;20061;-64
2023/05/06 00:18:21;;;;;;;10.18;5.45;;;12.00;99.90;;;;;;4968747;28;20062;-64
2023/05/06 00:20:47;;;;;;;13.07;6.10;;;12.10;99.90;;;;;;4971061;28;20068;-64
2023/05/06 00:23:12;;;;;;;9.75;5.15;;;12.00;99.90;;;;;;4971672;28;20070;-64
2023/05/06 00:25:38;;;;;;;11.07;5.47;;;12.00;99.90;;;;;;4973870;28;20030;-64
2023/05/06 00:28:04;;;;;;;9.68;5.15;;;12.00;99.90;;;;;;4971615;28;20038;-64
2023/05/06 00:30:30;;;;;;;13.15;6.60;;;12.00;99.90;;;;;;4970754;28;20038;-64
2023/05/06 00:32:56;;;;;;;9.93;5.13;;;12.00;99.90;;;;;;4971537;28;20034;-64
2023/05/06 00:35:21;;;;;;;6.78;4.78;;;11.80;99.90;;;;;;4968826;28;20041;-64
2023/05/06 00:37:56;;;;;;;8.80;4.88;;;11.80;99.90;;;;;;4972007;28;20042;-64
2023/05/06 00:40:22;;;;;;;7.38;4.97;;;11.80;99.90;;;;;;4951860;28;20502;-64
2023/05/06 00:42:48;;;;;;;10.80;5.22;;;11.60;99.90;;;;;;4968536;28;20034;-64
2023/05/06 00:45:14;;;;;;;12.23;5.15;;;11.70;99.90;;;;;;4973594;28;20129;-64
2023/05/06 00:47:40;;;;;;;12.55;5.25;;;11.70;99.90;;;;;;4970901;28;20042;-64
2023/05/06 00:50:07;;;;;;;7.75;4.72;;;11.70;99.90;;;;;;4968945;28;20837;-64
2023/05/06 00:52:33;;;;;;;7.63;4.65;;;11.70;99.90;;;;;;4969066;28;20049;-64
2023/05/06 00:54:58;;;;;;;10.15;4.97;;;11.70;99.90;;;;;;4968572;28;20034;-64
2023/05/06 00:57:24;;;;;;;8.23;5.03;;;11.60;99.90;;;;;;4966529;28;20090;-64
2023/05/06 00:59:50;;;;;;;9.25;5.55;;;11.60;99.90;;;;;;4967438;28;20078;-64
2023/05/06 01:02:16;;;;;;;10.23;5.25;;;11.50;99.90;;;;;;4969787;28;20138;-63
2023/05/06 01:04:42;;;;;;;11.15;4.78;;;11.50;99.90;;;;;;4970422;28;20023;-63
2023/05/06 01:07:16;;;;;;;10.18;5.55;;;11.50;99.90;;;;;;4969903;28;20023;-63
2023/05/06 01:09:48;;;;;;;8.07;4.85;;;11.50;99.90;;;;;;4970861;28;20026;-63
2023/05/06 01:12:29;;;;;;;9.52;5.05;;;11.40;99.90;;;;;;4964424;28;20045;-63
2023/05/06 01:15:08;;;;;;;11.50;5.70;;;11.30;99.90;;;;;;4965086;28;20039;-63
2023/05/06 01:17:38;;;;;;;8.35;5.00;;;11.30;99.90;;;;;;4965870;28;20038;-64
2023/05/06 01:20:06;;;;;;;10.82;5.20;;;11.30;99.90;;;;;;4968589;28;20034;-64
2023/05/06 01:22:35;;;;;;;10.73;5.38;;;11.30;99.90;;;;;;4969592;28;20137;-63
2023/05/06 01:25:01;;;;;;;16.27;6.72;;;11.30;99.90;;;;;;4967034;28;20033;-63
2023/05/06 01:27:27;;;;;;;7.82;5.28;;;11.30;99.90;;;;;;4969669;28;20035;-63
2023/05/06 01:29:54;;;;;;;11.80;5.25;;;11.30;99.90;;;;;;4970538;28;20038;-63
2023/05/06 01:32:32;;;;;;;9.80;5.38;;;11.20;99.90;;;;;;4966984;28;20373;-63
2023/05/06 01:35:35;;;;;;;9.55;5.50;;;11.20;99.90;;;;;;4971186;28;20414;-63
2023/05/06 01:38:21;;;;;;;10.00;5.13;;;11.10;99.90;;;;;;4966042;28;20034;-63
2023/05/06 01:40:53;;;;;;;10.38;5.18;;;11.10;99.90;;;;;;4985055;28;20038;-63
2023/05/06 01:43:20;;;;;;;8.13;4.97;;;11.10;99.90;;;;;;4952304;28;20046;-65
2023/05/06 01:45:52;;;;;;;10.80;5.60;;;11.20;99.90;;;;;;4969710;28;20506;-63
2023/05/06 01:48:38;;;;;;;10.40;6.03;;;11.20;99.90;;;;;;4966901;28;20023;-63
2023/05/06 01:51:04;;;;;;;8.10;5.00;;;11.10;99.90;;;;;;4968415;28;20047;-63
2023/05/06 01:53:31;;;;;;;12.05;5.53;;;11.10;99.90;;;;;;4969065;28;20033;-63
2023/05/06 01:55:57;;;;;;;13.27;5.82;;;11.10;99.90;;;;;;4969657;28;20031;-63
2023/05/06 01:58:23;;;;;;;8.35;5.50;;;11.20;99.90;;;;;;4970899;28;20586;-63
2023/05/06 02:00:49;;;;;;;12.00;5.75;;;11.30;99.90;;;;;;4967935;28;20049;-63
2023/05/06 02:03:15;;;;;;;13.23;6.18;;;11.30;99.90;;;;;;4968351;28;20089;-63
2023/05/06 02:05:41;;;;;;;11.07;5.65;;;11.40;99.90;;;;;;4965759;28;20446;-63
2023/05/06 02:08:07;;;;;;;14.82;5.35;;;11.40;99.90;;;;;;4969145;28;20030;-63
2023/05/06 02:10:33;;;;;;;12.40;5.40;;;11.50;99.90;;;;;;4968638;28;20034;-64
2023/05/06 02:13:05;;;;;;;8.27;5.40;;;11.50;99.90;;;;;;4964010;28;20039;-63
2023/05/06 02:15:31;;;;;;;11.40;5.88;;;11.50;99.90;;;;;;4970861;28;20038;-64
2023/05/06 02:17:58;;;;;;;9.18;5.53;;;11.50;99.90;;;;;;4965937;28;20949;-63
2023/05/06 02:20:25;;;;;;;9.57;5.65;;;11.50;99.90;;;;;;4969592;28;20026;-63
2023/05/06 02:22:51;;;;;;;7.38;4.85;;;11.50;99.90;;;;;;4969826;28;20035;-63
2023/05/06 02:25:17;;;;;;;10.98;5.00;;;11.50;99.90;;;;;;4966545;28;20030;-63
2023/05/06 02:27:44;;;;;;;9.63;5.95;;;11.50;99.90;;;;;;4969449;28;20029;-63
2023/05/06 02:30:11;;;;;;;8.90;4.80;;;11.50;99.90;;;;;;4968646;28;20046;-63
2023/05/06 02:32:36;;;;;;;8.75;5.35;;;11.40;99.90;;;;;;4975056;28;20049;-63
2023/05/06 02:35:03;;;;;;;7.32;5.25;;;11.50;99.90;;;;;;4960389;28;20035;-63
2023/05/06 02:37:28;;;;;;;13.25;6.03;;;11.40;99.90;;;;;;4969179;28;20034;-63
2023/05/06 02:39:54;;;;;;;8.68;5.22;;;11.40;99.90;;;;;;4960584;28;20045;-65
2023/05/06 02:42:20;;;;;;;12.90;5.78;;;11.40;99.90;;;;;;4955187;28;20043;-64
2023/05/06 02:44:46;;;;;;;11.50;5.88;;;11.30;99.90;;;;;;4961400;28;20050;-65
2023/05/06 02:47:12;;;;;;;14.25;5.88;;;11.30;99.90;;;;;;4959354;28;20045;-64
2023/05/06 02:49:38;;;;;;;8.82;5.53;;;11.30;99.90;;;;;;4973736;28;20022;-65
2023/05/06 02:52:04;;;;;;;11.45;5.78;;;11.30;99.90;;;;;;4965984;28;20141;-65
2023/05/06 02:54:29;;;;;;;10.02;5.78;;;11.40;99.90;;;;;;4969690;28;20279;-64
2023/05/06 02:56:55;;;;;;;12.13;7.22;;;11.40;99.90;;;;;;4964442;28;20503;-65
2023/05/06 02:59:22;;;;;;;11.35;6.35;;;11.40;99.90;;;;;;4974606;28;20889;-65
2023/05/06 03:01:48;;;;;;;10.23;5.45;;;11.40;99.90;;;;;;4967196;28;20034;-64
2023/05/06 03:04:14;;;;;;;15.73;5.93;;;11.40;99.90;;;;;;4964376;28;20096;-65
2023/05/06 03:06:39;;;;;;;9.07;5.28;;;11.30;99.90;;;;;;4959873;28;20059;-65
2023/05/06 03:09:05;;;;;;;12.85;5.20;;;11.30;99.90;;;;;;4964027;28;20030;-65
2023/05/06 03:11:31;;;;;;;7.93;4.97;;;11.30;99.90;;;;;;4961311;28;20664;-64
2023/05/06 03:14:01;;;;;;;10.15;5.50;;;11.30;99.90;;;;;;4960796;28;20034;-65
2023/05/06 03:16:27;;;;;;;10.07;5.00;;;11.30;99.90;;;;;;4960256;28;20034;-65
2023/05/06 03:18:56;;;;;;;7.05;4.95;;;11.30;99.90;;;;;;4963768;28;20027;-65
2023/05/06 03:21:22;;;;;;;8.48;5.47;;;11.20;99.90;;;;;;4966158;28;20027;-65
2023/05/06 03:23:50;;;;;;;8.77;5.53;;;11.20;99.90;;;;;;4966921;28;20066;-64
2023/05/06 03:26:17;;;;;;;16.52;5.80;;;11.20;99.90;;;;;;4956389;28;20030;-65
2023/05/06 03:28:44;;;;;;;6.82;5.03;;;11.20;99.90;;;;;;4962474;28;20043;-64
2023/05/06 03:31:11;;;;;;;7.10;4.93;;;11.10;99.90;;;;;;4958952;28;20045;-65
2023/05/06 03:33:37;;;;;;;10.43;5.13;;;11.00;99.90;;;;;;4961826;28;20034;-65
2023/05/06 03:36:05;;;;;;;6.50;5.05;;;11.00;99.90;;;;;;4961460;28;20039;-64
2023/05/06 03:38:34;;;;;;;10.88;5.13;;;10.80;99.90;;;;;;4970683;28;20947;-64
2023/05/06 03:41:03;;;;;;;9.80;5.47;;;10.90;99.90;;;;;;4971322;28;20042;-65
2023/05/06 03:43:30;;;;;;;10.57;5.70;;;10.90;99.90;;;;;;4966210;28;20126;-65
2023/05/06 03:45:59;;;;;;;9.88;6.07;;;10.90;99.90;;;;;;4962641;28;20118;-65
2023/05/06 03:48:25;;;;;;;11.48;5.85;;;10.90;99.90;;;;;;4953400;28;20130;-65
2023/05/06 03:50:51;;;;;;;8.95;5.53;;;11.00;99.90;;;;;;4964201;28;20030;-64
2023/05/06 03:53:17;;;;;;;8.05;5.28;;;11.00;99.90;;;;;;4961234;28;20031;-64
2023/05/06 03:55:45;;;;;;;10.23;5.45;;;11.00;99.90;;;;;;4964923;28;20183;-65
2023/05/06 03:58:12;;;;;;;12.20;6.90;;;11.00;99.90;;;;;;4968463;28;20768;-65
2023/05/06 04:00:39;;;;;;;9.88;6.10;;;11.10;99.90;;;;;;4973345;28;20053;-65
2023/05/06 04:03:05;;;;;;;9.45;5.65;;;11.10;99.90;;;;;;4957158;28;20053;-65
2023/05/06 04:05:39;;;;;;;8.20;5.28;;;11.10;99.90;;;;;;4965953;28;20074;-65
2023/05/06 04:08:06;;;;;;;11.35;5.80;;;11.20;99.90;;;;;;4961671;28;20034;-65
2023/05/06 04:10:37;;;;;;;9.68;6.03;;;11.30;99.90;;;;;;4964108;28;20756;-64
2023/05/06 04:13:07;;;;;;;10.43;5.70;;;11.20;99.90;;;;;;4969662;28;20038;-64
2023/05/06 04:15:40;;;;;;;8.80;5.35;;;11.30;99.90;;;;;;4968397;28;20082;-64
2023/05/06 04:18:08;;;;;;;10.88;6.28;;;11.30;99.90;;;;;;4958359;28;20061;-65
2023/05/06 04:20:37;;;;;;;12.38;5.65;;;11.30;99.90;;;;;;4968095;28;20038;-66
2023/05/06 04:23:03;;;;;;;11.93;6.18;;;11.30;99.90;;;;;;4969721;28;20022;-65
2023/05/06 04:25:29;;;;;;;11.02;5.80;;;11.40;99.90;;;;;;4975976;28;20114;-65
2023/05/06 04:27:55;;;;;;;8.50;5.30;;;11.30;99.90;;;;;;4967594;28;20118;-65
2023/05/06 04:30:22;;;;;;;14.00;5.72;;;11.30;99.90;;;;;;4972805;28;20126;-65
2023/05/06 04:32:49;;;;;;;10.80;6.15;;;11.30;99.90;;;;;;4970214;28;20042;-64
2023/05/06 04:35:15;;;;;;;7.82;5.45;;;11.30;99.90;;;;;;4964718;28;20486;-64
2023/05/06 04:37:42;;;;;;;8.63;5.53;;;11.30;99.90;;;;;;4968671;28;20034;-65
2023/05/06 04:40:17;;;;;;;9.65;5.22;;;11.30;99.90;;;;;;4963985;28;20034;-64
2023/05/06 04:42:46;;;;;;;11.18;5.65;;;11.40;99.90;;;;;;4962042;28;20094;-64
2023/05/06 04:45:18;;;;;;;7.22;4.95;;;11.30;99.90;;;;;;4959108;28;20486;-65
2023/05/06 04:47:47;;;;;;;8.50;5.35;;;11.40;99.90;;;;;;4957585;28;20039;-64
2023/05/06 04:50:15;;;;;;;12.85;6.28;;;11.40;99.90;;;;;;4967742;28;20149;-65
2023/05/06 04:52:41;;;;;;;12.75;6.30;;;11.40;99.90;;;;;;4972655;28;20026;-65
2023/05/06 04:55:07;;;;;;;10.85;5.45;;;11.40;99.90;;;;;;4973070;28;20039;-65
2023/05/06 04:57:36;;;;;;;9.60;5.60;;;11.40;99.90;;;;;;4970601;28;20063;-65
2023/05/06 05:00:03;;;;;;;8.20;5.28;;;11.40;99.90;;;;;;4968022;28;20118;-65
2023/05/06 05:02:28;;;;;;;9.02;5.60;;;11.30;99.90;;;;;;4967507;28;20387;-65
2023/05/06 05:04:55;;;;;;;7.40;5.45;;;11.30;99.90;;;;;;4971058;28;20030;-64
2023/05/06 05:07:21;;;;;;;12.40;5.60;;;11.30;99.90;;;;;;4965387;28;20034;-65
2023/05/06 05:09:47;;;;;;;11.38;5.38;;;11.30;99.90;;;;;;4962996;28;20061;-65
2023/05/06 05:12:13;;;;;;;11.52;6.30;;;11.30;99.90;;;;;;4966790;28;20145;-65
2023/05/06 05:14:42;;;;;;;8.80;5.72;;;11.30;99.90;;;;;;4969908;28;20042;-65
2023/05/06 05:17:10;;;;;;;9.30;5.78;;;11.30;99.90;;;;;;4964399;28;20336;-65
2023/05/06 05:19:37;;;;;;;10.52;5.78;;;11.30;99.90;;;;;;4961181;28;20191;-64
2023/05/06 05:22:03;;;;;;;12.07;6.28;;;11.40;99.90;;;;;;4968136;28;20043;-65
2023/05/06 05:24:31;;;;;;;8.65;5.43;;;11.40;99.90;;;;;;4961972;28;20050;-65
2023/05/06 05:26:57;;;;;;;9.73;6.32;;;11.40;99.90;;;;;;4972238;28;20745;-65
2023/05/06 05:29:23;;;;;;;10.10;6.03;;;11.40;99.90;;;;;;4957685;28;20027;-65
2023/05/06 05:31:49;;;;;;;8.45;5.70;;;11.40;99.90;;;;;;4973877;28;20034;-65
2023/05/06 05:34:15;;;;;;;9.05;6.15;;;11.40;99.90;;;;;;4965662;28;20031;-64
2023/05/06 05:36:41;;;;;;;13.20;6.18;;;11.40;99.90;;;;;;4963313;28;20037;-65
2023/05/06 05:39:10;;;;;;;10.88;5.53;;;11.40;99.90;;;;;;4965338;28;20857;-64
2023/05/06 05:41:41;;;;;;;8.77;5.95;;;11.40;99.90;;;;;;4970327;28;20038;-65
2023/05/06 05:44:08;;;;;;;12.35;6.32;;;11.40;99.90;;;;;;4963340;28;20451;-65
2023/05/06 05:46:34;;;;;;;13.48;6.10;;;11.40;99.90;;;;;;4967426;28;20483;-64
2023/05/06 05:49:02;;;;;;;7.80;5.45;;;11.40;99.90;;;;;;4962797;28;20042;-64
2023/05/06 05:51:28;;;;;;;9.68;5.60;;;11.40;99.90;;;;;;4968541;28;20106;-65
2023/05/06 05:53:56;;;;;;;11.35;5.25;;;11.30;99.90;;;;;;4965893;28;20859;-64
2023/05/06 05:56:23;;;;;;;7.78;5.15;;;11.30;99.90;;;;;;4967111;28;20026;-64
2023/05/06 05:58:49;;;;;;;8.57;5.53;;;11.30;99.90;;;;;;4970169;28;20034;-65
2023/05/06 06:01:16;;;;;;;8.38;5.88;;;11.30;99.90;;;;;;4965756;28;20042;-65
2023/05/06 06:03:42;;;;;;;8.15;5.53;;;11.30;99.90;;;;;;4962962;28;20062;-65
2023/05/06 06:06:08;;;;;;;9.82;5.22;;;11.30;99.90;;;;;;4965945;28;20038;-65
2023/05/06 06:08:35;;;;;;;10.48;5.85;;;11.30;99.90;;;;;;4967415;28;20093;-64
2023/05/06 06:11:03;;;;;;;10.93;5.57;;;11.40;99.90;;;;;;4966141;28;20030;-65
2023/05/06 06:13:34;;;;;;;9.52;5.80;;;11.20;99.90;;;;;;4960246;28;20034;-65
2023/05/06 06:16:00;;;;;;;10.30;5.20;;;11.20;99.90;;;;;;4970104;28;20308;-65
2023/05/06 06:18:26;;;;;;;9.40;5.40;;;11.20;99.90;;;;;;4971487;28;20940;-65
2023/05/06 06:20:52;;;;;;;10.93;5.60;;;11.20;99.90;;;;;;4967079;28;20030;-65
2023/05/06 06:23:18;;;;;;;11.60;5.75;;;11.20;99.90;;;;;;4964600;28;20086;-64
2023/05/06 06:25:43;;;;;;;10.30;5.55;;;11.30;99.90;;;;;;4960779;28;20117;-65
2023/05/06 06:28:09;;;;;;;8.13;5.43;;;11.20;99.90;;;;;;4964830;28;20030;-64
2023/05/06 06:30:36;;;;;;;8.38;5.65;;;11.30;99.90;;;;;;4965053;28;20494;-64
2023/05/06 06:33:03;;;;;;;11.32;6.10;;;11.30;99.90;;;;;;4967054;28;20058;-64
2023/05/06 06:35:28;;;;;;;8.90;5.68;;;11.30;99.90;;;;;;4964063;28;20041;-65
2023/05/06 06:37:54;;;;;;;11.95;5.22;;;11.30;99.90;;;;;;4969761;28;20042;-66
2023/05/06 06:40:21;;;;;;;10.13;6.00;;;11.40;99.90;;;;;;4963760;28;20039;-65
2023/05/06 06:42:47;;;;;;;9.38;5.50;;;11.40;99.90;;;;;;4971787;28;20145;-64
2023/05/06 06:45:48;;;;;;;10.05;6.28;;;11.40;99.90;;;;;;4973541;28;20042;-65
2023/05/06 06:48:14;;;;;;;9.60;5.85;;;11.40;99.90;;;;;;4963089;28;20046;-65
2023/05/06 06:50:39;;;;;;;9.88;6.00;;;11.40;99.90;;;;;;4959893;28;20043;-64
2023/05/06 06:53:05;;;;;;;8.68;5.45;;;11.40;99.90;;;;;;4968167;28;20081;-64
2023/05/06 06:55:31;;;;;;;10.10;6.15;;;11.50;99.90;;;;;;4967241;28;20034;-64
2023/05/06 06:57:56;;;;;;;9.20;6.28;;;11.50;99.90;;;;;;4968038;28;20042;-64
2023/05/06 07:00:22;;;;;;;9.38;6.38;;;11.50;99.90;;;;;;4961355;28;20030;-64
2023/05/06 07:02:48;;;;;;;11.15;6.22;;;11.50;99.90;;;;;;4960904;28;20034;-63
2023/05/06 07:05:14;;;;;;;9.98;6.32;;;11.50;99.90;;;;;;4962690;28;20113;-63
2023/05/06 07:07:40;;;;;;;8.02;5.85;;;11.50;99.90;;;;;;4967132;28;20047;-63
2023/05/06 07:10:07;;;;;;;9.45;6.30;;;11.60;99.90;;;;;;4966636;28;20129;-63
2023/05/06 07:12:32;;;;;;;11.63;6.68;;;11.70;99.90;;;;;;4963817;28;20042;-62
2023/05/06 07:14:58;;;;;;;13.25;6.30;;;11.70;99.90;;;;;;4967366;28;20035;-63
2023/05/06 07:17:24;;;;;;;9.35;5.63;;;11.60;99.90;;;;;;4965686;28;20035;-63
2023/05/06 07:19:50;;;;;;;10.98;6.28;;;11.60;99.90;;;;;;4971592;28;20745;-63
2023/05/06 07:22:16;;;;;;;9.57;5.70;;;11.50;99.90;;;;;;4968259;28;20138;-63
2023/05/06 07:24:41;;;;;;;9.02;6.35;;;11.60;99.90;;;;;;4974418;28;20105;-63
2023/05/06 07:27:07;;;;;;;10.95;5.80;;;11.60;99.90;;;;;;4963736;28;20843;-63
2023/05/06 07:29:35;;;;;;;13.93;7.30;;;11.60;99.90;;;;;;4963365;28;20031;-64
2023/05/06 07:32:02;;;;;;;14.55;7.13;;;11.60;99.90;;;;;;4969519;28;20031;-64
2023/05/06 07:34:27;;;;;;;11.02;5.93;;;11.60;99.90;;;;;;4969966;28;20374;-63
2023/05/06 07:36:53;;;;;;;6.78;5.03;;;11.50;99.90;;;;;;4966120;28;20646;-64
2023/05/06 07:39:19;;;;;;;8.35;5.90;;;11.50;99.90;;;;;;4969654;28;20057;-64
2023/05/06 07:41:44;;;;;;;10.80;6.65;;;11.60;99.90;;;;;;4969193;28;20368;-63
2023/05/06 07:44:10;;;;;;;8.13;6.45;;;11.50;99.90;;;;;;4967837;28;20454;-65
2023/05/06 07:46:36;;;;;;;8.43;5.82;;;11.50;99.90;;;;;;4964262;28;20038;-65
2023/05/06 07:49:02;;;;;;;9.85;6.10;;;11.50;99.90;;;;;;4971074;28;20041;-65
2023/05/06 07:51:28;;;;;;;10.02;6.15;;;11.60;99.90;;;;;;4972163;28;20035;-65
2023/05/06 07:53:54;;;;;;;9.52;6.25;;;11.50;99.90;;;;;;4966410;28;20089;-64
2023/05/06 07:56:20;;;;;;;12.38;6.50;;;11.60;99.90;;;;;;4965316;28;20483;-64
2023/05/06 07:58:48;;;;;;;12.27;6.22;;;11.50;99.90;;;;;;4966193;28;20030;-64
2023/05/06 08:01:14;;;;;;;10.40;6.70;;;11.60;99.90;;;;;;4967359;28;20578;-64
2023/05/06 08:03:40;;;;;;;9.98;6.53;;;11.50;99.90;;;;;;4972187;28;20034;-64
2023/05/06 08:06:07;;;;;;;10.55;6.53;;;11.50;99.90;;;;;;4965548;28;20090;-64
2023/05/06 08:08:33;;;;;;;10.80;6.88;;;11.40;99.90;;;;;;4968346;28;20154;-64
2023/05/06 08:10:59;;;;;;;10.98;6.38;;;11.40;99.90;;;;;;4964151;28;20043;-62
2023/05/06 08:13:26;;;;;;;10.20;6.15;;;11.50;99.90;;;;;;4971851;28;20033;-63
2023/05/06 08:15:53;;;;;;;7.47;6.20;;;11.60;99.90;;;;;;4975048;28;20038;-64
2023/05/06 08:18:18;;;;;;;9.30;6.05;;;11.70;99.90;;;;;;4964896;28;20027;-64
2023/05/06 08:20:44;;;;;;;10.48;6.57;;;11.80;99.90;;;;;;4971414;28;20477;-63
2023/05/06 08:23:10;;;;;;;9.15;6.07;;;11.80;99.90;;;;;;4968633;28;20035;-63
2023/05/06 08:25:36;;;;;;;12.65;6.75;;;11.80;99.90;;;;;;4972584;28;20568;-63
2023/05/06 08:28:02;;;;;;;9.85;7.03;;;11.80;99.90;;;;;;4969784;28;20035;-64
2023/05/06 08:30:27;;;;;;;9.55;6.50;;;11.90;99.90;;;;;;4972776;28;20030;-63
2023/05/06 08:32:53;;;;;;;8.32;6.38;;;11.90;99.90;;;;;;4971118;28;20035;-63
2023/05/06 08:35:19;;;;;;;9.52;6.75;;;11.90;99.90;;;;;;4971926;28;20597;-63
2023/05/06 08:37:45;;;;;;;8.35;5.88;;;11.90;99.90;;;;;;4967082;28;20693;-63
2023/05/06 08:40:18;;;;;;;9.10;6.32;;;11.90;99.90;;;;;;4972384;28;20046;-62
2023/05/06 08:42:46;;;;;;;9.18;6.45;;;11.90;99.90;;;;;;4969874;28;20132;-63
2023/05/06 08:45:13;;;;;;;8.38;6.25;;;11.90;99.90;;;;;;4968277;28;20770;-63
2023/05/06 08:47:40;;;;;;;8.48;6.43;;;12.00;99.90;;;;;;4968584;28;20034;-63
2023/05/06 08:50:06;;;;;;;13.85;5.70;;;12.00;99.90;;;;;;4966809;28;20477;-63
2023/05/06 08:52:33;;;;;;;9.20;6.47;;;12.00;99.90;;;;;;4971906;28;20030;-63
2023/05/06 08:55:03;;;;;;;8.60;6.60;;;12.00;99.90;;;;;;4968585;28;20392;-63
2023/05/06 08:57:31;;;;;;;10.30;5.90;;;12.00;99.90;;;;;;4969587;28;20045;-63
2023/05/06 08:59:57;;;;;;;10.95;6.18;;;12.00;99.90;;;;;;4964467;28;20046;-63
2023/05/06 09:02:24;;;;;;;9.70;5.95;;;12.10;99.90;;;;;;4958700;28;20031;-63
2023/05/06 09:04:52;;;;;;;8.52;5.80;;;12.10;99.90;;;;;;4970326;28;20038;-63
2023/05/06 09:07:20;;;;;;;9.25;6.28;;;12.10;99.90;;;;;;4964019;28;20027;-65
2023/05/06 09:09:46;;;;;;;10.02;6.55;;;12.10;99.90;;;;;;4974966;28;20038;-65
2023/05/06 09:12:13;;;;;;;9.85;6.40;;;12.20;99.90;;;;;;4966360;28;20042;-65
2023/05/06 09:14:42;;;;;;;10.20;5.93;;;12.20;99.90;;;;;;4954431;28;20026;-65
2023/05/06 09:17:23;;;;;;;11.07;6.60;;;12.20;99.90;;;;;;4962224;28;20090;-66
2023/05/06 09:19:58;;;;;;;11.68;6.80;;;12.30;99.90;;;;;;4954420;28;20345;-66
2023/05/06 09:22:27;;;;;;;9.77;6.82;;;12.30;99.90;;;;;;4950029;28;20047;-65
2023/05/06 09:24:56;;;;;;;10.80;5.95;;;12.40;99.90;;;;;;4961343;28;20035;-66
2023/05/06 09:27:30;;;;;;;10.65;6.07;;;12.40;99.90;;;;;;4953417;28;20306;-65
2023/05/06 09:30:05;;;;;;;11.00;6.18;;;12.50;99.90;;;;;;4961438;28;20046;-64
2023/05/06 09:32:32;;;;;;;11.10;5.95;;;12.50;99.90;;;;;;4963342;28;20090;-63
2023/05/06 09:34:58;;;;;;;17.27;6.55;;;12.40;99.90;;;;;;4961533;28;20667;-64
2023/05/06 09:37:25;;;;;;;9.25;6.50;;;12.40;99.90;;;;;;4964935;28;20038;-63
2023/05/06 09:39:57;;;;;;;10.82;6.28;;;12.40;99.90;;;;;;4970779;28;20585;-63
2023/05/06 09:42:25;;;;;;;7.85;6.18;;;12.40;99.90;;;;;;4967002;28;20026;-63
2023/05/06 09:45:04;;;;;;;12.00;6.88;;;12.40;99.90;;;;;;4963488;28;20042;-64
2023/05/06 09:47:33;;;;;;;10.63;6.35;;;12.40;99.90;;;;;;4965308;28;20062;-64
2023/05/06 09:50:01;;;;;;;10.93;5.95;;;12.40;99.90;;;;;;4967242;28;20570;-63
2023/05/06 09:52:27;;;;;;;9.77;6.40;;;12.40;99.90;;;;;;4962397;28;20109;-64
2023/05/06 09:54:54;;;;;;;9.73;7.20;;;12.40;99.90;;;;;;4966185;28;20539;-63
2023/05/06 09:57:21;;;;;;;7.13;6.13;;;12.50;99.90;;;;;;4967128;28;20101;-63
2023/05/06 09:59:47;;;;;;;9.32;6.10;;;12.40;99.90;;;;;;4969223;28;20117;-64
2023/05/06 10:02:14;;;;;;;9.02;6.57;;;12.40;99.90;;;;;;4961556;28;20038;-63
2023/05/06 10:04:41;;;;;;;10.35;7.20;;;12.40;99.90;;;;;;4966149;28;20026;-64
2023/05/06 10:07:12;;;;;;;14.40;7.00;;;12.40;99.90;;;;;;4961830;28;20045;-63
2023/05/06 10:09:39;;;;;;;12.15;7.70;;;12.50;99.90;;;;;;4968316;28;20034;-64
2023/05/06 10:12:07;;;;;;;8.32;6.47;;;12.50;99.90;;;;;;4959717;28;20030;-64
2023/05/06 10:14:37;;;;;;;14.57;7.18;;;12.40;99.90;;;;;;4968063;28;20022;-64
2023/05/06 10:17:07;;;;;;;9.27;7.32;;;12.30;99.90;;;;;;4961139;28;20387;-64
2023/05/06 10:19:33;;;;;;;9.35;6.88;;;12.20;99.90;;;;;;4970084;28;20031;-64
2023/05/06 10:22:26;;;;;;;13.30;7.32;;;12.30;99.90;;;;;;4962551;28;20030;-64
2023/05/06 10:25:02;;;;;;;10.90;6.82;;;12.30;99.90;;;;;;4965122;28;20031;-64
2023/05/06 10:27:31;;;;;;;12.77;7.30;;;12.30;99.90;;;;;;4966531;28;20357;-63
2023/05/06 10:29:59;;;;;;;12.10;6.80;;;12.30;99.90;;;;;;4965124;28;20081;-65
2023/05/06 10:32:30;;;;;;;10.07;6.53;;;12.40;99.90;;;;;;4964784;28;20773;-64
2023/05/06 10:35:00;;;;;;;12.32;7.35;;;12.40;99.90;;;;;;4965129;28;20053;-64
2023/05/06 10:37:29;;;;;;;10.98;7.10;;;12.50;99.90;;;;;;4970526;28;20030;-64
2023/05/06 10:39:55;;;;;;;10.48;7.28;;;12.50;99.90;;;;;;4965754;28;20729;-64
2023/05/06 10:42:27;;;;;;;9.63;6.82;;;12.50;99.90;;;;;;4964292;28;20027;-64
2023/05/06 10:45:03;;;;;;;10.98;6.95;;;12.50;99.90;;;;;;4962888;28;20050;-64
2023/05/06 10:47:56;;;;;;;8.68;6.88;;;12.60;99.90;;;;;;4965727;28;20037;-64
2023/05/06 10:50:26;;;;;;;9.60;5.93;;;12.60;99.90;;;;;;4970424;28;20035;-64
2023/05/06 10:52:57;;;;;;;10.35;5.78;;;12.60;99.90;;;;;;4965744;28;20042;-64
2023/05/06 10:55:33;;;;;;;8.23;5.60;;;12.60;99.90;;;;;;4965403;28;20035;-64
2023/05/06 10:58:03;;;;;;;7.47;5.50;;;12.60;99.90;;;;;;4962487;28;20072;-64
2023/05/06 11:00:33;;;;;;;11.38;5.60;;;12.60;99.90;;;;;;4960560;28;20062;-64
2023/05/06 11:03:08;;;;;;;9.40;5.50;;;12.60;99.90;;;;;;4968031;28;20050;-65
2023/05/06 11:05:46;;;;;;;7.82;5.88;;;12.60;99.90;;;;;;4960803;28;20033;-64
2023/05/06 11:08:13;;;;;;;6.18;5.30;;;12.50;99.90;;;;;;4964729;28;20092;-63
2023/05/06 11:10:39;;;;;;;10.65;5.50;;;12.60;99.90;;;;;;4959596;28;20074;-64
2023/05/06 11:13:18;;;;;;;6.90;5.80;;;12.50;99.90;;;;;;4965094;28;20126;-63
2023/05/06 11:15:45;;;;;;;8.35;5.78;;;12.60;99.90;;;;;;4962533;28;20041;-63
2023/05/06 11:18:35;;;;;;;7.32;5.45;;;12.50;99.90;;;;;;4968849;28;20042;-63
2023/05/06 11:21:02;;;;;;;6.53;5.32;;;12.50;99.90;;;;;;4965438;28;20042;-64
2023/05/06 11:23:57;;;;;;;8.07;6.03;;;12.50;99.90;;;;;;4966941;28;20027;-64
2023/05/06 11:26:23;;;;;;;7.05;4.88;;;12.60;99.90;;;;;;4965376;28;20039;-64
2023/05/06 11:28:50;;;;;;;7.72;5.25;;;12.70;99.90;;;;;;4967420;28;20805;-64
2023/05/06 11:31:16;;;;;;;8.13;5.60;;;12.70;99.90;;;;;;4967362;28;20035;-63
2023/05/06 11:33:50;;;;;;;8.68;6.15;;;12.70;99.90;;;;;;4961338;28;20461;-63
2023/05/06 11:36:18;;;;;;;6.95;5.22;;;12.70;99.90;;;;;;4967523;28;20698;-63
2023/05/06 11:38:50;;;;;;;7.30;5.85;;;12.70;99.90;;;;;;4963541;28;20524;-63
2023/05/06 11:41:17;;;;;;;9.07;5.53;;;12.70;99.90;;;;;;4971152;28;20041;-63
2023/05/06 11:43:48;;;;;;;5.80;4.85;;;12.70;99.90;;;;;;4965108;28;20038;-64
2023/05/06 11:46:15;;;;;;;7.93;4.75;;;12.70;99.90;;;;;;4963384;28;20037;-63
2023/05/06 11:48:42;;;;;;;5.82;4.80;;;12.70;99.90;;;;;;4965793;28;20034;-63
2023/05/06 11:51:08;;;;;;;6.70;4.97;;;12.60;99.90;;;;;;4967438;28;20037;-63
2023/05/06 11:53:34;;;;;;;9.43;5.32;;;12.60;99.90;;;;;;4964727;28;20491;-63
2023/05/06 11:55:59;;;;;;;6.72;5.03;;;12.60;99.90;;;;;;4968862;28;20060;-64
2023/05/06 11:58:27;;;;;;;5.68;4.82;;;12.60;99.90;;;;;;4970797;28;20042;-63
2023/05/06 12:00:56;;;;;;;6.15;5.55;;;12.60;99.90;;;;;;4972177;28;20154;-64
2023/05/06 12:03:23;;;;;;;7.30;5.53;;;12.70;99.90;;;;;;4972116;28;20177;-63
2023/05/06 12:05:49;;;;;;;5.75;5.15;;;12.70;99.90;;;;;;4970192;28;20035;-64
2023/05/06 12:08:22;;;;;;;7.60;6.00;;;12.70;99.90;;;;;;4972066;28;20462;-64
2023/05/06 12:10:50;;;;;;;8.07;5.95;;;12.60;99.90;;;;;;4971753;28;20089;-64
2023/05/06 12:13:16;;;;;;;6.13;5.50;;;12.70;99.90;;;;;;4967791;28;20039;-63
2023/05/06 12:15:43;;;;;;;10.05;6.60;;;12.70;99.90;;;;;;4965485;28;20037;-63
2023/05/06 12:18:09;;;;;;;5.88;5.30;;;12.70;99.90;;;;;;4971531;28;20588;-64
2023/05/06 12:20:35;;;;;;;8.45;6.13;;;12.60;99.90;;;;;;4968034;28;20761;-63
2023/05/06 12:23:11;;;;;;;8.75;6.85;;;12.70;99.90;;;;;;4967206;28;20096;-62
2023/05/06 12:25:38;;;;;;;;;;;12.70;99.90;;;;;;4967094;28;20027;-63
2023/05/06 12:28:17;;;;;;;7.50;6.40;;;12.80;99.90;;;;;;4970970;28;19913;-64
2023/05/06 12:30:43;;;;;;;8.82;6.63;;;12.80;99.90;;;;;;4965053;28;20090;-64
2023/05/06 12:33:12;;;;;;;8.73;6.72;;;12.80;99.90;;;;;;4964273;28;20039;-64
2023/05/06 12:35:40;;;;;;;9.52;7.38;;;12.80;99.90;;;;;;4969031;28;20155;-63
2023/05/06 12:38:16;;;;;;;11.45;7.65;;;12.80;99.90;;;;;;4968546;28;20855;-63
2023/05/06 12:40:44;;;;;;;9.20;6.90;;;12.80;99.90;;;;;;4964508;28;20050;-64
2023/05/06 12:43:11;;;;;;;10.88;7.05;;;12.80;99.90;;;;;;4965689;28;20041;-64
2023/05/06 12:45:38;;;;;;;8.50;6.82;;;12.60;99.90;;;;;;4965819;28;20031;-64
2023/05/06 12:48:05;;;;;;;9.00;6.70;;;12.60;99.90;;;;;;4968244;28;20540;-63